Terminal Aerodrome Forecast
Issued by NWS

Home | Current Version | Previous Version | Graphics & Text | Print | Product List | Glossary On
Versions: 1 2 3 4 5 6 7 8 9 10 11 12 13 14 15 16 17 18 19 20 21 22
000
FTUS42 KMHX 280526
TAFOAJ
TAF
KOAJ 280526Z 2806/2906 00000KT P6SM SCT250
     FM280900 VRB03KT 4SM BR SCT007
     FM281100 VRB04KT 4SM BR BKN007
     FM281300 VRB04KT P6SM BKN200
     FM290000 08005KT P6SM SHRA OVC035
      AMD LTD TO CLD VIS AND WIND=

USA.gov is the U.S. government's official web portal to all federal, state and local government web resources and services.